UAL1728 KELP-KDEN
Flight info
| Callsign | UAL1728 |
|---|---|
| Flight time | 1h 22m |
| Altitude | 38000 |
| Route | ATKNN5 SLNNK GNDLA TBARR4 |
| Aircraft | A319/M-SDE3FGHIRWY/LB1 |
Departure
| Time | 2026-04-26 05:18 |
|---|---|
| Airport | El Paso International Airport (KELP) |
Arrival
| Time | 2026-04-26 06:41 |
|---|---|
| Airport | Denver International Airport (KDEN) |
| Time | Latitude | Longitude | Altitude | Speed | Heading |
|---|---|---|---|---|---|
| 2026-04-26 04:39 | 31.80089 | -106.39296 | 3947 ft | 0 kts | 224° |
| 2026-04-26 05:06 | 31.80092 | -106.39293 | 3947 ft | 3 kts | 224° |
| 2026-04-26 05:06 | 31.80112 | -106.39271 | 3947 ft | 4 kts | 224° |
| 2026-04-26 05:07 | 31.80132 | -106.39249 | 3947 ft | 4 kts | 224° |
| 2026-04-26 05:07 | 31.80138 | -106.39242 | 3947 ft | 0 kts | 224° |
| 2026-04-26 05:09 | 31.80131 | -106.39245 | 3947 ft | 3 kts | 201° |
| 2026-04-26 05:09 | 31.80115 | -106.39235 | 3947 ft | 2 kts | 126° |
| 2026-04-26 05:09 | 31.80100 | -106.39204 | 3947 ft | 6 kts | 117° |
| 2026-04-26 05:10 | 31.80073 | -106.39147 | 3947 ft | 9 kts | 122° |
| 2026-04-26 05:10 | 31.80029 | -106.39092 | 3947 ft | 9 kts | 134° |
| 2026-04-26 05:10 | 31.79990 | -106.39031 | 3947 ft | 9 kts | 109° |
| 2026-04-26 05:10 | 31.79989 | -106.38954 | 3947 ft | 10 kts | 89° |
| 2026-04-26 05:11 | 31.79989 | -106.38864 | 3947 ft | 13 kts | 90° |
| 2026-04-26 05:11 | 31.79990 | -106.38751 | 3947 ft | 15 kts | 90° |
| 2026-04-26 05:11 | 31.79991 | -106.38602 | 3947 ft | 21 kts | 89° |
| 2026-04-26 05:11 | 31.79992 | -106.38420 | 3947 ft | 23 kts | 91° |
| 2026-04-26 05:12 | 31.79992 | -106.38252 | 3947 ft | 21 kts | 90° |
| 2026-04-26 05:12 | 31.79992 | -106.38098 | 3947 ft | 22 kts | 90° |
| 2026-04-26 05:12 | 31.79991 | -106.37917 | 3947 ft | 22 kts | 90° |
| 2026-04-26 05:12 | 31.79984 | -106.37747 | 3947 ft | 20 kts | 93° |
| 2026-04-26 05:13 | 31.79976 | -106.37585 | 3947 ft | 20 kts | 93° |
| 2026-04-26 05:13 | 31.79969 | -106.37437 | 3947 ft | 17 kts | 93° |
| 2026-04-26 05:13 | 31.79962 | -106.37296 | 3947 ft | 17 kts | 93° |
| 2026-04-26 05:13 | 31.79955 | -106.37152 | 3947 ft | 18 kts | 94° |
| 2026-04-26 05:14 | 31.79948 | -106.37006 | 3947 ft | 18 kts | 93° |
| 2026-04-26 05:14 | 31.79940 | -106.36854 | 3947 ft | 19 kts | 93° |
| 2026-04-26 05:14 | 31.79932 | -106.36700 | 3947 ft | 19 kts | 94° |
| 2026-04-26 05:14 | 31.79924 | -106.36545 | 3947 ft | 19 kts | 93° |
| 2026-04-26 05:15 | 31.79917 | -106.36401 | 3947 ft | 14 kts | 93° |
| 2026-04-26 05:15 | 31.79912 | -106.36312 | 3947 ft | 0 kts | 93° |
| 2026-04-26 05:15 | 31.79911 | -106.36288 | 3947 ft | 7 kts | 93° |
| 2026-04-26 05:16 | 31.79907 | -106.36195 | 3947 ft | 14 kts | 93° |
| 2026-04-26 05:16 | 31.79901 | -106.36075 | 3947 ft | 16 kts | 93° |
| 2026-04-26 05:16 | 31.79947 | -106.35985 | 3947 ft | 15 kts | 5° |
| 2026-04-26 05:16 | 31.80032 | -106.35979 | 3948 ft | 11 kts | 2° |
| 2026-04-26 05:17 | 31.80066 | -106.36016 | 3948 ft | 0 kts | 273° |
| 2026-04-26 05:17 | 31.80068 | -106.36069 | 3948 ft | 24 kts | 272° |
| 2026-04-26 05:17 | 31.80087 | -106.36470 | 3948 ft | 74 kts | 273° |
| 2026-04-26 05:17 | 31.80127 | -106.37285 | 3947 ft | 125 kts | 273° |
| 2026-04-26 05:18 | 31.80192 | -106.38431 | 4268 ft | 145 kts | 272° |
| 2026-04-26 05:18 | 31.80148 | -106.39612 | 4874 ft | 148 kts | 251° |
| 2026-04-26 05:18 | 31.79697 | -106.40694 | 5463 ft | 146 kts | 243° |
| 2026-04-26 05:18 | 31.79197 | -106.41760 | 5945 ft | 157 kts | 245° |
| 2026-04-26 05:19 | 31.78662 | -106.42976 | 6153 ft | 178 kts | 245° |
| 2026-04-26 05:19 | 31.78062 | -106.44340 | 6395 ft | 199 kts | 245° |
| 2026-04-26 05:19 | 31.77378 | -106.45895 | 6481 ft | 232 kts | 245° |
| 2026-04-26 05:19 | 31.76604 | -106.47668 | 6898 ft | 253 kts | 245° |
| 2026-04-26 05:20 | 31.75983 | -106.49607 | 7595 ft | 259 kts | 263° |
| 2026-04-26 05:20 | 31.76292 | -106.51693 | 8398 ft | 266 kts | 291° |
| 2026-04-26 05:20 | 31.77264 | -106.53574 | 9253 ft | 272 kts | 302° |
| 2026-04-26 05:20 | 31.78440 | -106.55343 | 10039 ft | 278 kts | 306° |
| 2026-04-26 05:21 | 31.79812 | -106.57015 | 10681 ft | 296 kts | 317° |
| 2026-04-26 05:21 | 31.81683 | -106.58264 | 10989 ft | 324 kts | 335° |
| 2026-04-26 05:21 | 31.83958 | -106.58929 | 11251 ft | 350 kts | 347° |
| 2026-04-26 05:21 | 31.86384 | -106.59391 | 11838 ft | 358 kts | 346° |
| 2026-04-26 05:22 | 31.88865 | -106.59865 | 12502 ft | 363 kts | 347° |
| 2026-04-26 05:22 | 31.91366 | -106.60322 | 13221 ft | 366 kts | 347° |
| 2026-04-26 05:22 | 31.93909 | -106.60784 | 13839 ft | 373 kts | 347° |
| 2026-04-26 05:22 | 31.96482 | -106.61253 | 14481 ft | 375 kts | 347° |
| 2026-04-26 05:23 | 31.99068 | -106.61716 | 15108 ft | 378 kts | 347° |
| 2026-04-26 05:23 | 32.01662 | -106.62268 | 15730 ft | 378 kts | 340° |
| 2026-04-26 05:23 | 32.04072 | -106.63452 | 16317 ft | 374 kts | 325° |
| 2026-04-26 05:23 | 32.06162 | -106.65249 | 16943 ft | 371 kts | 314° |
| 2026-04-26 05:24 | 32.07982 | -106.67390 | 17640 ft | 369 kts | 309° |
| 2026-04-26 05:24 | 32.09783 | -106.69565 | 18295 ft | 373 kts | 310° |
| 2026-04-26 05:24 | 32.11643 | -106.71720 | 18851 ft | 376 kts | 311° |
| 2026-04-26 05:24 | 32.13675 | -106.73642 | 19455 ft | 385 kts | 321° |
| 2026-04-26 05:25 | 32.15950 | -106.75336 | 20079 ft | 387 kts | 322° |
| 2026-04-26 05:25 | 32.18215 | -106.77066 | 20691 ft | 389 kts | 321° |
| 2026-04-26 05:25 | 32.20479 | -106.78829 | 21278 ft | 391 kts | 320° |
| 2026-04-26 05:25 | 32.22743 | -106.80615 | 21836 ft | 393 kts | 320° |
| 2026-04-26 05:26 | 32.25021 | -106.82415 | 22375 ft | 395 kts | 320° |
| 2026-04-26 05:26 | 32.27314 | -106.84222 | 22896 ft | 397 kts | 319° |
| 2026-04-26 05:26 | 32.29621 | -106.86035 | 23404 ft | 400 kts | 319° |
| 2026-04-26 05:26 | 32.31945 | -106.87860 | 23822 ft | 402 kts | 319° |
| 2026-04-26 05:27 | 32.34284 | -106.89695 | 24234 ft | 404 kts | 319° |
| 2026-04-26 05:27 | 32.36634 | -106.91535 | 24645 ft | 406 kts | 319° |
| 2026-04-26 05:27 | 32.38997 | -106.93387 | 25045 ft | 408 kts | 319° |
| 2026-04-26 05:27 | 32.41363 | -106.95247 | 25418 ft | 410 kts | 319° |
| 2026-04-26 05:28 | 32.43746 | -106.97123 | 25808 ft | 412 kts | 319° |
| 2026-04-26 05:28 | 32.46109 | -106.98981 | 26177 ft | 414 kts | 319° |
| 2026-04-26 05:28 | 32.48514 | -107.00871 | 26543 ft | 416 kts | 319° |
| 2026-04-26 05:28 | 32.50925 | -107.02770 | 26899 ft | 418 kts | 319° |
| 2026-04-26 05:29 | 32.53354 | -107.04683 | 27271 ft | 420 kts | 319° |
| 2026-04-26 05:29 | 32.55793 | -107.06604 | 27601 ft | 422 kts | 318° |
| 2026-04-26 05:29 | 32.58239 | -107.08533 | 27946 ft | 423 kts | 318° |
| 2026-04-26 05:29 | 32.60694 | -107.10473 | 28286 ft | 425 kts | 318° |
| 2026-04-26 05:30 | 32.63163 | -107.12427 | 28636 ft | 427 kts | 318° |
| 2026-04-26 05:30 | 32.65602 | -107.14358 | 28960 ft | 429 kts | 318° |
| 2026-04-26 05:30 | 32.68092 | -107.16329 | 29299 ft | 431 kts | 318° |
| 2026-04-26 05:30 | 32.70588 | -107.18307 | 29642 ft | 433 kts | 317° |
| 2026-04-26 05:31 | 32.73092 | -107.20290 | 30078 ft | 431 kts | 317° |
| 2026-04-26 05:31 | 32.75581 | -107.22260 | 30521 ft | 429 kts | 317° |
| 2026-04-26 05:31 | 32.78057 | -107.24221 | 30952 ft | 427 kts | 317° |
| 2026-04-26 05:31 | 32.80522 | -107.26177 | 31397 ft | 425 kts | 317° |
| 2026-04-26 05:32 | 32.82977 | -107.28126 | 31842 ft | 423 kts | 317° |
| 2026-04-26 05:32 | 32.85417 | -107.30066 | 32285 ft | 422 kts | 317° |
| 2026-04-26 05:32 | 32.87818 | -107.31979 | 32718 ft | 420 kts | 316° |
| 2026-04-26 05:32 | 32.90243 | -107.33905 | 33179 ft | 419 kts | 317° |
| 2026-04-26 05:33 | 32.92847 | -107.35559 | 33636 ft | 432 kts | 327° |
| 2026-04-26 05:33 | 32.95768 | -107.36612 | 34055 ft | 447 kts | 339° |
| 2026-04-26 05:33 | 32.98913 | -107.36949 | 34457 ft | 463 kts | 351° |
| 2026-04-26 05:33 | 33.02162 | -107.36495 | 34864 ft | 478 kts | 1° |
| 2026-04-26 05:34 | 33.05415 | -107.35701 | 35264 ft | 477 kts | 1° |
| 2026-04-26 05:34 | 33.08666 | -107.34900 | 35651 ft | 476 kts | 1° |
| 2026-04-26 05:34 | 33.11858 | -107.34115 | 36032 ft | 475 kts | 0° |
| 2026-04-26 05:34 | 33.15085 | -107.33325 | 36419 ft | 473 kts | 0° |
| 2026-04-26 05:35 | 33.18307 | -107.32538 | 36771 ft | 472 kts | 0° |
| 2026-04-26 05:35 | 33.21528 | -107.31756 | 37096 ft | 471 kts | 360° |
| 2026-04-26 05:35 | 33.24735 | -107.30981 | 37420 ft | 471 kts | 360° |
| 2026-04-26 05:35 | 33.27946 | -107.30206 | 37746 ft | 470 kts | 359° |
| 2026-04-26 05:36 | 33.31148 | -107.29432 | 37950 ft | 470 kts | 359° |
| 2026-04-26 05:36 | 33.34346 | -107.28708 | 37964 ft | 466 kts | 357° |
| 2026-04-26 05:36 | 33.40719 | -107.27688 | 37919 ft | 459 kts | 354° |
| 2026-04-26 05:37 | 33.47022 | -107.26932 | 37878 ft | 459 kts | 354° |
| 2026-04-26 05:37 | 33.53376 | -107.26107 | 37830 ft | 460 kts | 355° |
| 2026-04-26 05:38 | 33.59745 | -107.25182 | 37791 ft | 461 kts | 355° |
| 2026-04-26 05:38 | 33.66109 | -107.24229 | 37795 ft | 461 kts | 355° |
| 2026-04-26 05:39 | 33.72441 | -107.23299 | 37796 ft | 462 kts | 355° |
| 2026-04-26 05:39 | 33.78821 | -107.22379 | 37807 ft | 462 kts | 355° |
| 2026-04-26 05:40 | 33.85212 | -107.21455 | 37835 ft | 463 kts | 355° |
| 2026-04-26 05:40 | 33.91617 | -107.20528 | 37867 ft | 464 kts | 355° |
| 2026-04-26 05:41 | 33.98031 | -107.19592 | 37879 ft | 465 kts | 355° |
| 2026-04-26 05:41 | 34.04408 | -107.18663 | 37894 ft | 465 kts | 355° |
| 2026-04-26 05:42 | 34.10544 | -107.17764 | 37893 ft | 465 kts | 355° |
| 2026-04-26 05:42 | 34.16973 | -107.16813 | 37878 ft | 465 kts | 355° |
| 2026-04-26 05:43 | 34.23403 | -107.15868 | 37855 ft | 466 kts | 355° |
| 2026-04-26 05:43 | 34.29803 | -107.14930 | 37822 ft | 466 kts | 356° |
| 2026-04-26 05:44 | 34.36245 | -107.13988 | 37813 ft | 467 kts | 356° |
| 2026-04-26 05:44 | 34.42696 | -107.13033 | 37811 ft | 467 kts | 356° |
| 2026-04-26 05:45 | 34.49146 | -107.12076 | 37808 ft | 467 kts | 356° |
| 2026-04-26 05:45 | 34.55553 | -107.11127 | 37817 ft | 467 kts | 356° |
| 2026-04-26 05:46 | 34.62013 | -107.10175 | 37810 ft | 468 kts | 356° |
| 2026-04-26 05:46 | 34.68475 | -107.09218 | 37808 ft | 468 kts | 356° |
| 2026-04-26 05:47 | 34.74945 | -107.08254 | 37809 ft | 469 kts | 356° |
| 2026-04-26 05:47 | 34.81429 | -107.07281 | 37814 ft | 469 kts | 356° |
| 2026-04-26 05:48 | 34.87871 | -107.06324 | 37826 ft | 470 kts | 356° |
| 2026-04-26 05:48 | 34.94363 | -107.05372 | 37870 ft | 470 kts | 356° |
| 2026-04-26 05:49 | 35.04119 | -107.03907 | 37893 ft | 471 kts | 356° |
| 2026-04-26 05:50 | 35.10607 | -107.02931 | 37914 ft | 474 kts | 356° |
| 2026-04-26 05:50 | 35.17173 | -107.01942 | 37928 ft | 476 kts | 356° |
| 2026-04-26 05:51 | 35.23762 | -107.00944 | 37927 ft | 478 kts | 356° |
| 2026-04-26 05:51 | 35.30368 | -106.99942 | 37913 ft | 479 kts | 356° |
| 2026-04-26 05:52 | 35.36996 | -106.98939 | 37897 ft | 480 kts | 356° |
| 2026-04-26 05:52 | 35.43630 | -106.97936 | 37872 ft | 481 kts | 356° |
| 2026-04-26 05:53 | 35.50227 | -106.96948 | 37857 ft | 481 kts | 356° |
| 2026-04-26 05:53 | 35.56873 | -106.95941 | 37863 ft | 482 kts | 356° |
| 2026-04-26 05:54 | 35.63537 | -106.94925 | 37860 ft | 483 kts | 356° |
| 2026-04-26 05:54 | 35.70206 | -106.93911 | 37869 ft | 483 kts | 356° |
| 2026-04-26 05:55 | 35.76836 | -106.92899 | 37878 ft | 484 kts | 357° |
| 2026-04-26 05:55 | 35.83521 | -106.91878 | 37880 ft | 484 kts | 357° |
| 2026-04-26 05:56 | 35.90209 | -106.90860 | 37887 ft | 484 kts | 357° |
| 2026-04-26 05:56 | 35.96901 | -106.89834 | 37886 ft | 485 kts | 357° |
| 2026-04-26 05:57 | 36.03550 | -106.88808 | 37890 ft | 484 kts | 357° |
| 2026-04-26 05:57 | 36.10233 | -106.87776 | 37887 ft | 484 kts | 357° |
| 2026-04-26 05:58 | 36.16909 | -106.86747 | 37884 ft | 483 kts | 357° |
| 2026-04-26 05:58 | 36.23582 | -106.85724 | 37888 ft | 483 kts | 357° |
| 2026-04-26 05:59 | 36.30244 | -106.84696 | 37892 ft | 482 kts | 357° |
| 2026-04-26 05:59 | 36.36896 | -106.83666 | 37887 ft | 482 kts | 357° |
| 2026-04-26 06:00 | 36.43501 | -106.82644 | 37892 ft | 481 kts | 357° |
| 2026-04-26 06:00 | 36.50146 | -106.81612 | 37892 ft | 481 kts | 357° |
| 2026-04-26 06:01 | 36.56784 | -106.80579 | 37893 ft | 481 kts | 357° |
| 2026-04-26 06:01 | 36.63378 | -106.79545 | 37890 ft | 481 kts | 357° |
| 2026-04-26 06:02 | 36.70011 | -106.78506 | 37890 ft | 481 kts | 358° |
| 2026-04-26 06:02 | 36.76647 | -106.77439 | 37893 ft | 483 kts | 0° |
| 2026-04-26 06:03 | 36.83121 | -106.75704 | 37900 ft | 487 kts | 4° |
| 2026-04-26 06:03 | 36.89694 | -106.73863 | 37905 ft | 487 kts | 4° |
| 2026-04-26 06:04 | 36.96306 | -106.72003 | 37900 ft | 487 kts | 4° |
| 2026-04-26 06:04 | 37.02922 | -106.70142 | 37904 ft | 487 kts | 4° |
| 2026-04-26 06:05 | 37.09527 | -106.68290 | 37918 ft | 486 kts | 4° |
| 2026-04-26 06:05 | 37.16078 | -106.66453 | 37925 ft | 485 kts | 4° |
| 2026-04-26 06:06 | 37.22652 | -106.64601 | 37930 ft | 484 kts | 5° |
| 2026-04-26 06:06 | 37.29218 | -106.62749 | 37915 ft | 482 kts | 5° |
| 2026-04-26 06:07 | 37.35762 | -106.60900 | 37900 ft | 482 kts | 5° |
| 2026-04-26 06:07 | 37.42293 | -106.59042 | 37897 ft | 481 kts | 5° |
| 2026-04-26 06:08 | 37.48773 | -106.57195 | 37915 ft | 480 kts | 5° |
| 2026-04-26 06:08 | 37.55295 | -106.55346 | 37941 ft | 480 kts | 5° |
| 2026-04-26 06:09 | 37.61818 | -106.53488 | 37960 ft | 480 kts | 5° |
| 2026-04-26 06:09 | 37.68338 | -106.51627 | 37975 ft | 481 kts | 5° |
| 2026-04-26 06:10 | 37.74858 | -106.49759 | 37983 ft | 481 kts | 5° |
| 2026-04-26 06:10 | 37.81347 | -106.47894 | 37969 ft | 482 kts | 5° |
| 2026-04-26 06:11 | 37.87882 | -106.46019 | 37940 ft | 482 kts | 5° |
| 2026-04-26 06:11 | 37.94430 | -106.44147 | 37900 ft | 483 kts | 5° |
| 2026-04-26 06:12 | 38.00994 | -106.42259 | 37846 ft | 484 kts | 5° |
| 2026-04-26 06:12 | 38.07519 | -106.40374 | 37788 ft | 485 kts | 5° |
| 2026-04-26 06:13 | 38.14107 | -106.38469 | 37788 ft | 485 kts | 5° |
| 2026-04-26 06:13 | 38.20690 | -106.36569 | 37787 ft | 485 kts | 5° |
| 2026-04-26 06:14 | 38.27272 | -106.34675 | 37795 ft | 485 kts | 5° |
| 2026-04-26 06:14 | 38.33857 | -106.32762 | 37835 ft | 485 kts | 5° |
| 2026-04-26 06:15 | 38.40397 | -106.30856 | 37873 ft | 486 kts | 5° |
| 2026-04-26 06:15 | 38.46984 | -106.28935 | 37902 ft | 486 kts | 5° |
| 2026-04-26 06:16 | 38.53575 | -106.27016 | 37654 ft | 486 kts | 5° |
| 2026-04-26 06:16 | 38.56869 | -106.26054 | 37388 ft | 486 kts | 5° |
| 2026-04-26 06:16 | 38.59050 | -106.25378 | 37210 ft | 489 kts | 9° |
| 2026-04-26 06:16 | 38.63280 | -106.23233 | 36870 ft | 501 kts | 22° |
| 2026-04-26 06:17 | 38.66256 | -106.20860 | 36572 ft | 507 kts | 32° |
| 2026-04-26 06:17 | 38.68959 | -106.17895 | 35787 ft | 518 kts | 43° |
| 2026-04-26 06:17 | 38.71337 | -106.14390 | 34991 ft | 525 kts | 48° |
| 2026-04-26 06:17 | 38.73664 | -106.10795 | 34437 ft | 523 kts | 48° |
| 2026-04-26 06:18 | 38.75199 | -106.08427 | 33958 ft | 521 kts | 48° |
| 2026-04-26 06:18 | 38.77516 | -106.04858 | 32716 ft | 521 kts | 48° |
| 2026-04-26 06:18 | 38.80583 | -106.00147 | 31465 ft | 514 kts | 49° |
| 2026-04-26 06:18 | 38.82852 | -105.96665 | 30653 ft | 504 kts | 49° |
| 2026-04-26 06:19 | 38.85082 | -105.93241 | 29825 ft | 496 kts | 49° |
| 2026-04-26 06:19 | 38.86537 | -105.91006 | 29196 ft | 490 kts | 49° |
| 2026-04-26 06:19 | 38.89425 | -105.86564 | 28150 ft | 480 kts | 49° |
| 2026-04-26 06:19 | 38.91543 | -105.83278 | 27804 ft | 476 kts | 50° |
| 2026-04-26 06:20 | 38.92938 | -105.81104 | 27389 ft | 475 kts | 50° |
| 2026-04-26 06:20 | 38.95025 | -105.77842 | 26772 ft | 472 kts | 50° |
| 2026-04-26 06:20 | 38.97099 | -105.74597 | 26163 ft | 469 kts | 50° |
| 2026-04-26 06:20 | 38.99828 | -105.70327 | 25443 ft | 463 kts | 50° |
| 2026-04-26 06:21 | 39.01865 | -105.67137 | 24845 ft | 461 kts | 50° |
| 2026-04-26 06:21 | 39.03890 | -105.63971 | 24384 ft | 455 kts | 50° |
| 2026-04-26 06:21 | 39.05899 | -105.60844 | 23881 ft | 452 kts | 49° |
| 2026-04-26 06:21 | 39.07222 | -105.58789 | 23586 ft | 449 kts | 49° |
| 2026-04-26 06:22 | 39.09207 | -105.55708 | 23096 ft | 445 kts | 49° |
| 2026-04-26 06:22 | 39.11173 | -105.52653 | 22655 ft | 440 kts | 50° |
| 2026-04-26 06:22 | 39.13103 | -105.49651 | 22395 ft | 430 kts | 50° |
| 2026-04-26 06:22 | 39.14990 | -105.46714 | 21894 ft | 421 kts | 50° |
| 2026-04-26 06:23 | 39.16844 | -105.43812 | 21362 ft | 418 kts | 50° |
| 2026-04-26 06:23 | 39.18671 | -105.40924 | 20961 ft | 413 kts | 51° |
| 2026-04-26 06:23 | 39.20448 | -105.38090 | 20460 ft | 410 kts | 51° |
| 2026-04-26 06:23 | 39.22224 | -105.35246 | 19991 ft | 406 kts | 51° |
| 2026-04-26 06:24 | 39.23994 | -105.32412 | 19542 ft | 402 kts | 51° |
| 2026-04-26 06:24 | 39.25742 | -105.29614 | 19110 ft | 399 kts | 52° |
| 2026-04-26 06:24 | 39.27457 | -105.26877 | 18990 ft | 385 kts | 51° |
| 2026-04-26 06:24 | 39.29328 | -105.24489 | 18879 ft | 373 kts | 38° |
| 2026-04-26 06:25 | 39.31400 | -105.22535 | 18612 ft | 367 kts | 34° |
| 2026-04-26 06:25 | 39.33465 | -105.20628 | 18381 ft | 364 kts | 35° |
| 2026-04-26 06:25 | 39.35489 | -105.18750 | 18180 ft | 363 kts | 35° |
| 2026-04-26 06:25 | 39.37532 | -105.16850 | 17946 ft | 361 kts | 35° |
| 2026-04-26 06:26 | 39.39566 | -105.14957 | 17722 ft | 359 kts | 35° |
| 2026-04-26 06:26 | 39.41588 | -105.13075 | 17513 ft | 357 kts | 35° |
| 2026-04-26 06:26 | 39.43600 | -105.11201 | 17292 ft | 355 kts | 35° |
| 2026-04-26 06:26 | 39.45600 | -105.09336 | 17055 ft | 353 kts | 35° |
| 2026-04-26 06:27 | 39.47591 | -105.07483 | 16823 ft | 352 kts | 35° |
| 2026-04-26 06:27 | 39.49577 | -105.05654 | 16507 ft | 349 kts | 34° |
| 2026-04-26 06:27 | 39.51531 | -105.03868 | 16219 ft | 347 kts | 34° |
| 2026-04-26 06:27 | 39.53494 | -105.02074 | 15928 ft | 345 kts | 34° |
| 2026-04-26 06:28 | 39.55445 | -105.00287 | 15629 ft | 342 kts | 34° |
| 2026-04-26 06:28 | 39.57383 | -104.98510 | 15347 ft | 340 kts | 34° |
| 2026-04-26 06:28 | 39.59306 | -104.96742 | 15056 ft | 338 kts | 35° |
| 2026-04-26 06:28 | 39.61212 | -104.94983 | 14776 ft | 336 kts | 35° |
| 2026-04-26 06:29 | 39.63111 | -104.93232 | 14492 ft | 333 kts | 35° |
| 2026-04-26 06:29 | 39.64997 | -104.91493 | 14206 ft | 331 kts | 35° |
| 2026-04-26 06:29 | 39.66840 | -104.89788 | 13931 ft | 329 kts | 35° |
| 2026-04-26 06:29 | 39.68701 | -104.88070 | 13633 ft | 327 kts | 35° |
| 2026-04-26 06:30 | 39.70547 | -104.86366 | 13353 ft | 325 kts | 35° |
| 2026-04-26 06:30 | 39.72507 | -104.84945 | 13076 ft | 322 kts | 20° |
| 2026-04-26 06:30 | 39.74657 | -104.84201 | 12798 ft | 319 kts | 5° |
| 2026-04-26 06:30 | 39.76864 | -104.84084 | 12529 ft | 317 kts | 358° |
| 2026-04-26 06:31 | 39.79065 | -104.84065 | 12189 ft | 317 kts | 358° |
| 2026-04-26 06:31 | 39.81264 | -104.84039 | 11864 ft | 315 kts | 359° |
| 2026-04-26 06:31 | 39.83444 | -104.84008 | 11593 ft | 309 kts | 359° |
| 2026-04-26 06:31 | 39.85548 | -104.83978 | 11316 ft | 296 kts | 359° |
| 2026-04-26 06:32 | 39.87544 | -104.83951 | 11051 ft | 285 kts | 359° |
| 2026-04-26 06:32 | 39.89318 | -104.83931 | 10803 ft | 278 kts | 358° |
| 2026-04-26 06:32 | 39.91244 | -104.83913 | 10584 ft | 276 kts | 358° |
| 2026-04-26 06:32 | 39.93162 | -104.83897 | 10345 ft | 275 kts | 358° |
| 2026-04-26 06:33 | 39.95069 | -104.83878 | 10108 ft | 274 kts | 358° |
| 2026-04-26 06:33 | 39.96977 | -104.83859 | 9871 ft | 273 kts | 358° |
| 2026-04-26 06:33 | 39.98876 | -104.83842 | 9616 ft | 272 kts | 358° |
| 2026-04-26 06:33 | 40.00763 | -104.83829 | 9352 ft | 271 kts | 359° |
| 2026-04-26 06:34 | 40.02617 | -104.83816 | 9094 ft | 270 kts | 359° |
| 2026-04-26 06:34 | 40.04485 | -104.83796 | 8836 ft | 268 kts | 1° |
| 2026-04-26 06:34 | 40.06258 | -104.83195 | 8558 ft | 262 kts | 31° |
| 2026-04-26 06:34 | 40.07516 | -104.81606 | 8432 ft | 246 kts | 63° |
| 2026-04-26 06:35 | 40.07964 | -104.79560 | 8358 ft | 228 kts | 88° |
| 2026-04-26 06:35 | 40.08169 | -104.76927 | 8272 ft | 212 kts | 87° |
| 2026-04-26 06:35 | 40.08240 | -104.75644 | 8221 ft | 207 kts | 96° |
| 2026-04-26 06:35 | 40.07915 | -104.73855 | 8146 ft | 201 kts | 111° |
| 2026-04-26 06:36 | 40.07380 | -104.72195 | 8062 ft | 196 kts | 126° |
| 2026-04-26 06:36 | 40.06569 | -104.70804 | 7997 ft | 195 kts | 131° |
| 2026-04-26 06:36 | 40.05659 | -104.69513 | 7914 ft | 192 kts | 143° |
| 2026-04-26 06:36 | 40.04488 | -104.68715 | 7840 ft | 189 kts | 163° |
| 2026-04-26 06:37 | 40.03186 | -104.68521 | 7767 ft | 189 kts | 180° |
| 2026-04-26 06:37 | 40.01870 | -104.68539 | 7706 ft | 189 kts | 180° |
| 2026-04-26 06:37 | 40.00568 | -104.68554 | 7555 ft | 182 kts | 180° |
| 2026-04-26 06:37 | 39.99363 | -104.68569 | 7362 ft | 162 kts | 179° |
| 2026-04-26 06:38 | 39.98313 | -104.68581 | 7161 ft | 143 kts | 179° |
| 2026-04-26 06:38 | 39.97348 | -104.68592 | 6986 ft | 135 kts | 178° |
| 2026-04-26 06:38 | 39.96431 | -104.68602 | 6820 ft | 133 kts | 178° |
| 2026-04-26 06:38 | 39.95512 | -104.68613 | 6651 ft | 131 kts | 177° |
| 2026-04-26 06:39 | 39.94603 | -104.68623 | 6479 ft | 130 kts | 177° |
| 2026-04-26 06:39 | 39.93698 | -104.68634 | 6286 ft | 130 kts | 176° |
| 2026-04-26 06:39 | 39.92791 | -104.68645 | 6055 ft | 130 kts | 176° |
| 2026-04-26 06:39 | 39.91882 | -104.68657 | 5834 ft | 131 kts | 176° |
| 2026-04-26 06:40 | 39.90973 | -104.68667 | 5667 ft | 132 kts | 175° |
| 2026-04-26 06:40 | 39.90059 | -104.68673 | 5509 ft | 131 kts | 174° |
| 2026-04-26 06:40 | 39.89162 | -104.68689 | 5372 ft | 127 kts | 175° |
| 2026-04-26 06:40 | 39.88410 | -104.68693 | 5365 ft | 85 kts | 180° |
| 2026-04-26 06:41 | 39.87976 | -104.68695 | 5367 ft | 39 kts | 180° |
| 2026-04-26 06:41 | 39.87758 | -104.68649 | 5366 ft | 26 kts | 160° |
| 2026-04-26 06:41 | 39.87638 | -104.68567 | 5366 ft | 17 kts | 150° |
| 2026-04-26 06:41 | 39.87536 | -104.68502 | 5366 ft | 14 kts | 160° |
| 2026-04-26 06:42 | 39.87426 | -104.68487 | 5365 ft | 18 kts | 185° |
| 2026-04-26 06:42 | 39.87291 | -104.68494 | 5366 ft | 21 kts | 180° |
| 2026-04-26 06:42 | 39.87141 | -104.68496 | 5365 ft | 23 kts | 181° |
| 2026-04-26 06:42 | 39.86989 | -104.68499 | 5365 ft | 21 kts | 180° |
| 2026-04-26 06:43 | 39.86862 | -104.68499 | 5365 ft | 19 kts | 180° |
| 2026-04-26 06:43 | 39.86717 | -104.68501 | 5365 ft | 22 kts | 180° |
| 2026-04-26 06:43 | 39.86552 | -104.68502 | 5365 ft | 25 kts | 180° |
| 2026-04-26 06:43 | 39.86370 | -104.68504 | 5365 ft | 27 kts | 180° |
| 2026-04-26 06:44 | 39.86204 | -104.68504 | 5364 ft | 23 kts | 179° |
| 2026-04-26 06:44 | 39.86042 | -104.68509 | 5365 ft | 25 kts | 181° |
| 2026-04-26 06:44 | 39.85877 | -104.68509 | 5364 ft | 20 kts | 180° |
| 2026-04-26 06:44 | 39.85743 | -104.68509 | 5365 ft | 14 kts | 180° |
| 2026-04-26 06:45 | 39.85687 | -104.68423 | 5366 ft | 16 kts | 89° |
| 2026-04-26 06:45 | 39.85687 | -104.68274 | 5366 ft | 15 kts | 91° |
| 2026-04-26 06:45 | 39.85731 | -104.68155 | 5366 ft | 15 kts | 65° |
| 2026-04-26 06:45 | 39.85739 | -104.68037 | 5366 ft | 15 kts | 90° |
| 2026-04-26 06:46 | 39.85738 | -104.67914 | 5366 ft | 12 kts | 91° |
| 2026-04-26 06:46 | 39.85737 | -104.67826 | 5366 ft | 6 kts | 90° |
| 2026-04-26 06:46 | 39.85766 | -104.67804 | 5364 ft | 6 kts | 0° |
| 2026-04-26 06:46 | 39.85797 | -104.67804 | 5366 ft | 3 kts | 360° |
| 2026-04-26 06:47 | 39.85808 | -104.67804 | 5366 ft | 0 kts | 360° |